Decoded Metar for PASM (SAINT MARYS in AK, USA) (IATA:KSM) | Meteo·Mobile Aviation Weather
aviador You're here:

PASM Decoded Metar

SAINT MARYS in AK, USA
Report Time2019-01-17 23:40:00
UTC Time2019-01-17 23:49:06
Flight Rules ifr IFR
WindCalm
Visibility1609 m
Phenomena:Light Snow
Mist
Clouds:Overcast 006 Hf
Expected CloudBase > 400 ft AGL from Temp-Dew spread
Ceiling600 ft
Temp-7°C (ISA -21)
Dew Point-8°C (93% RH)
AAT-9.9°C
QNH1010 hPa
Density Alt-2,205 ft
Elevation302 ft
Report Wrong Elevation
Raw Report
PASM 172340Z AUTO 00000KT 1SM -SN BR OVC006 M07/M08 A2984 RMK AO2
SNB07 CIG 002V008 P0000 FZRANO=

Extra information for PASM:More info

Metar Taf Metar & Taf Last 4 Metars F.Rules Stats Wind Profile Meteogram Temp Stats Airport Information Weather charts Add Link Nearby VenuesMetar ALERT Operation Metar Decoded Social comments

AIRNAV info for PASM